sensor_id;sensor_type;location;lat;lon;timestamp;P1;durP1;ratioP1;P2;durP2;ratioP2
42690;SDS011;28306;55.744;37.578;2022-10-16T00:01:23;6.30;;;4.15;;
42690;SDS011;28306;55.744;37.578;2022-10-16T00:03:51;8.38;;;3.90;;
42690;SDS011;28306;55.744;37.578;2022-10-16T00:06:18;5.38;;;3.78;;
42690;SDS011;28306;55.744;37.578;2022-10-16T00:08:45;5.72;;;4.07;;
42690;SDS011;28306;55.744;37.578;2022-10-16T00:11:12;6.47;;;4.00;;
42690;SDS011;28306;55.744;37.578;2022-10-16T00:13:40;5.90;;;3.95;;
42690;SDS011;28306;55.744;37.578;2022-10-16T00:16:07;7.32;;;4.57;;
42690;SDS011;28306;55.744;37.578;2022-10-16T00:18:37;7.25;;;4.00;;
42690;SDS011;28306;55.744;37.578;2022-10-16T00:21:04;5.85;;;4.32;;
42690;SDS011;28306;55.744;37.578;2022-10-16T00:23:38;5.55;;;4.10;;
42690;SDS011;28306;55.744;37.578;2022-10-16T00:26:05;9.52;;;4.53;;
42690;SDS011;28306;55.744;37.578;2022-10-16T00:28:32;5.53;;;3.85;;
42690;SDS011;28306;55.744;37.578;2022-10-16T00:30:59;4.97;;;3.80;;
42690;SDS011;28306;55.744;37.578;2022-10-16T00:33:28;5.90;;;4.43;;
42690;SDS011;28306;55.744;37.578;2022-10-16T00:35:57;7.68;;;4.15;;
42690;SDS011;28306;55.744;37.578;2022-10-16T00:38:23;6.32;;;4.40;;
42690;SDS011;28306;55.744;37.578;2022-10-16T00:40:49;5.82;;;4.43;;
42690;SDS011;28306;55.744;37.578;2022-10-16T00:45:59;9.43;;;4.88;;
42690;SDS011;28306;55.744;37.578;2022-10-16T00:48:26;5.47;;;4.22;;
42690;SDS011;28306;55.744;37.578;2022-10-16T00:50:51;6.50;;;4.68;;
42690;SDS011;28306;55.744;37.578;2022-10-16T00:53:18;7.65;;;4.35;;
42690;SDS011;28306;55.744;37.578;2022-10-16T00:55:44;5.15;;;4.03;;
42690;SDS011;28306;55.744;37.578;2022-10-16T00:58:11;7.55;;;5.28;;
42690;SDS011;28306;55.744;37.578;2022-10-16T01:00:37;5.25;;;3.92;;
42690;SDS011;28306;55.744;37.578;2022-10-16T01:03:21;5.65;;;4.30;;
42690;SDS011;28306;55.744;37.578;2022-10-16T01:06:09;6.68;;;4.07;;
42690;SDS011;28306;55.744;37.578;2022-10-16T01:11:38;5.78;;;4.30;;
42690;SDS011;28306;55.744;37.578;2022-10-16T01:14:41;4.40;;;3.53;;
42690;SDS011;28306;55.744;37.578;2022-10-16T01:17:15;5.75;;;4.50;;
42690;SDS011;28306;55.744;37.578;2022-10-16T01:22:30;6.40;;;4.10;;
42690;SDS011;28306;55.744;37.578;2022-10-16T01:25:04;5.05;;;3.95;;
42690;SDS011;28306;55.744;37.578;2022-10-16T01:27:36;6.47;;;3.75;;
42690;SDS011;28306;55.744;37.578;2022-10-16T01:32:45;5.50;;;3.80;;
42690;SDS011;28306;55.744;37.578;2022-10-16T01:35:30;5.85;;;4.05;;
42690;SDS011;28306;55.744;37.578;2022-10-16T01:38:08;5.97;;;3.50;;
42690;SDS011;28306;55.744;37.578;2022-10-16T01:40:41;4.88;;;3.47;;
42690;SDS011;28306;55.744;37.578;2022-10-16T01:43:12;6.15;;;3.80;;
42690;SDS011;28306;55.744;37.578;2022-10-16T01:45:44;4.45;;;3.42;;
42690;SDS011;28306;55.744;37.578;2022-10-16T01:48:12;5.07;;;3.35;;
42690;SDS011;28306;55.744;37.578;2022-10-16T01:50:42;6.35;;;3.33;;
42690;SDS011;28306;55.744;37.578;2022-10-16T01:53:10;5.30;;;3.30;;
42690;SDS011;28306;55.744;37.578;2022-10-16T01:55:39;5.72;;;2.97;;
42690;SDS011;28306;55.744;37.578;2022-10-16T01:58:10;6.57;;;3.28;;
42690;SDS011;28306;55.744;37.578;2022-10-16T02:00:38;4.22;;;3.03;;
42690;SDS011;28306;55.744;37.578;2022-10-16T02:03:07;5.75;;;2.90;;
42690;SDS011;28306;55.744;37.578;2022-10-16T02:05:41;4.10;;;3.10;;
42690;SDS011;28306;55.744;37.578;2022-10-16T02:08:11;5.07;;;2.90;;
42690;SDS011;28306;55.744;37.578;2022-10-16T02:10:37;5.30;;;3.45;;
42690;SDS011;28306;55.744;37.578;2022-10-16T02:15:50;4.97;;;3.13;;
42690;SDS011;28306;55.744;37.578;2022-10-16T02:18:20;6.60;;;3.03;;
42690;SDS011;28306;55.744;37.578;2022-10-16T02:20:57;4.55;;;2.75;;
42690;SDS011;28306;55.744;37.578;2022-10-16T02:26:13;3.90;;;2.63;;
42690;SDS011;28306;55.744;37.578;2022-10-16T02:28:44;3.90;;;2.75;;
42690;SDS011;28306;55.744;37.578;2022-10-16T02:31:12;4.63;;;2.67;;
42690;SDS011;28306;55.744;37.578;2022-10-16T02:33:44;5.55;;;3.35;;
42690;SDS011;28306;55.744;37.578;2022-10-16T02:36:11;4.70;;;2.78;;
42690;SDS011;28306;55.744;37.578;2022-10-16T02:38:37;5.47;;;2.83;;
42690;SDS011;28306;55.744;37.578;2022-10-16T02:41:05;4.15;;;2.42;;
42690;SDS011;28306;55.744;37.578;2022-10-16T02:43:31;4.15;;;2.80;;
42690;SDS011;28306;55.744;37.578;2022-10-16T02:45:58;3.97;;;2.58;;
42690;SDS011;28306;55.744;37.578;2022-10-16T02:48:24;5.35;;;3.00;;
42690;SDS011;28306;55.744;37.578;2022-10-16T02:50:50;4.50;;;2.67;;
42690;SDS011;28306;55.744;37.578;2022-10-16T02:53:16;3.72;;;2.70;;
42690;SDS011;28306;55.744;37.578;2022-10-16T02:55:42;5.85;;;2.67;;
42690;SDS011;28306;55.744;37.578;2022-10-16T02:58:08;5.20;;;3.00;;
42690;SDS011;28306;55.744;37.578;2022-10-16T03:00:33;6.70;;;2.78;;
42690;SDS011;28306;55.744;37.578;2022-10-16T03:02:59;3.75;;;2.70;;
42690;SDS011;28306;55.744;37.578;2022-10-16T03:05:24;5.10;;;2.92;;
42690;SDS011;28306;55.744;37.578;2022-10-16T03:07:50;4.57;;;2.67;;
42690;SDS011;28306;55.744;37.578;2022-10-16T03:10:18;4.55;;;2.67;;
42690;SDS011;28306;55.744;37.578;2022-10-16T03:12:43;6.43;;;2.83;;
42690;SDS011;28306;55.744;37.578;2022-10-16T03:15:09;5.47;;;2.85;;
42690;SDS011;28306;55.744;37.578;2022-10-16T03:17:35;4.82;;;2.65;;
42690;SDS011;28306;55.744;37.578;2022-10-16T03:20:01;4.75;;;2.92;;
42690;SDS011;28306;55.744;37.578;2022-10-16T03:22:26;3.88;;;2.63;;
42690;SDS011;28306;55.744;37.578;2022-10-16T03:24:52;4.35;;;2.45;;
42690;SDS011;28306;55.744;37.578;2022-10-16T03:27:18;3.75;;;2.70;;
42690;SDS011;28306;55.744;37.578;2022-10-16T03:29:43;3.67;;;2.28;;
42690;SDS011;28306;55.744;37.578;2022-10-16T03:32:09;6.65;;;2.78;;
42690;SDS011;28306;55.744;37.578;2022-10-16T03:34:34;4.55;;;2.60;;
42690;SDS011;28306;55.744;37.578;2022-10-16T03:37:00;3.47;;;2.17;;
42690;SDS011;28306;55.744;37.578;2022-10-16T03:39:26;3.25;;;2.42;;
42690;SDS011;28306;55.744;37.578;2022-10-16T03:41:52;4.20;;;2.28;;
42690;SDS011;28306;55.744;37.578;2022-10-16T03:44:17;4.43;;;2.67;;
42690;SDS011;28306;55.744;37.578;2022-10-16T03:46:43;4.15;;;2.50;;
42690;SDS011;28306;55.744;37.578;2022-10-16T03:49:09;3.47;;;2.25;;
42690;SDS011;28306;55.744;37.578;2022-10-16T03:51:34;3.28;;;2.10;;
42690;SDS011;28306;55.744;37.578;2022-10-16T03:54:00;3.15;;;2.03;;
42690;SDS011;28306;55.744;37.578;2022-10-16T03:56:26;2.88;;;1.92;;
42690;SDS011;28306;55.744;37.578;2022-10-16T03:58:51;3.25;;;2.28;;
42690;SDS011;28306;55.744;37.578;2022-10-16T04:01:17;4.05;;;2.47;;
42690;SDS011;28306;55.744;37.578;2022-10-16T04:03:42;3.92;;;2.13;;
42690;SDS011;28306;55.744;37.578;2022-10-16T04:06:08;5.30;;;2.70;;
42690;SDS011;28306;55.744;37.578;2022-10-16T04:08:34;3.17;;;2.00;;
42690;SDS011;28306;55.744;37.578;2022-10-16T04:11:01;4.80;;;2.50;;
42690;SDS011;28306;55.744;37.578;2022-10-16T04:13:27;4.50;;;2.47;;
42690;SDS011;28306;55.744;37.578;2022-10-16T04:15:53;3.40;;;1.80;;
42690;SDS011;28306;55.744;37.578;2022-10-16T04:18:19;3.47;;;1.90;;
42690;SDS011;28306;55.744;37.578;2022-10-16T04:20:44;3.30;;;2.05;;
42690;SDS011;28306;55.744;37.578;2022-10-16T04:23:10;4.78;;;2.13;;
42690;SDS011;28306;55.744;37.578;2022-10-16T04:25:36;2.85;;;1.73;;
42690;SDS011;28306;55.744;37.578;2022-10-16T04:28:01;4.40;;;2.15;;
42690;SDS011;28306;55.744;37.578;2022-10-16T04:30:27;3.80;;;2.00;;
42690;SDS011;28306;55.744;37.578;2022-10-16T04:32:53;2.67;;;1.83;;
42690;SDS011;28306;55.744;37.578;2022-10-16T04:35:19;3.05;;;1.90;;
42690;SDS011;28306;55.744;37.578;2022-10-16T04:37:46;3.78;;;1.80;;
42690;SDS011;28306;55.744;37.578;2022-10-16T04:40:12;3.42;;;1.90;;
42690;SDS011;28306;55.744;37.578;2022-10-16T04:42:38;5.15;;;2.08;;
42690;SDS011;28306;55.744;37.578;2022-10-16T04:45:04;3.20;;;2.08;;
42690;SDS011;28306;55.744;37.578;2022-10-16T04:47:31;3.30;;;1.90;;
42690;SDS011;28306;55.744;37.578;2022-10-16T04:49:56;3.20;;;1.80;;
42690;SDS011;28306;55.744;37.578;2022-10-16T04:52:22;2.97;;;1.73;;
42690;SDS011;28306;55.744;37.578;2022-10-16T04:54:50;3.40;;;1.77;;
42690;SDS011;28306;55.744;37.578;2022-10-16T04:57:16;2.75;;;1.80;;
42690;SDS011;28306;55.744;37.578;2022-10-16T04:59:42;3.00;;;1.90;;
42690;SDS011;28306;55.744;37.578;2022-10-16T05:02:08;3.40;;;1.50;;
42690;SDS011;28306;55.744;37.578;2022-10-16T05:04:33;2.92;;;1.50;;
42690;SDS011;28306;55.744;37.578;2022-10-16T05:06:59;2.80;;;1.63;;
42690;SDS011;28306;55.744;37.578;2022-10-16T05:09:25;2.75;;;1.60;;
42690;SDS011;28306;55.744;37.578;2022-10-16T05:11:50;4.78;;;1.70;;
42690;SDS011;28306;55.744;37.578;2022-10-16T05:14:16;3.05;;;1.50;;
42690;SDS011;28306;55.744;37.578;2022-10-16T05:16:42;3.88;;;1.63;;
42690;SDS011;28306;55.744;37.578;2022-10-16T05:19:07;2.60;;;1.40;;
42690;SDS011;28306;55.744;37.578;2022-10-16T05:21:33;2.17;;;1.42;;
42690;SDS011;28306;55.744;37.578;2022-10-16T05:23:59;3.05;;;1.70;;
42690;SDS011;28306;55.744;37.578;2022-10-16T05:26:24;2.67;;;1.60;;
42690;SDS011;28306;55.744;37.578;2022-10-16T05:28:50;2.03;;;1.35;;
42690;SDS011;28306;55.744;37.578;2022-10-16T05:31:15;1.92;;;1.33;;
42690;SDS011;28306;55.744;37.578;2022-10-16T05:33:41;2.13;;;1.23;;
42690;SDS011;28306;55.744;37.578;2022-10-16T05:36:09;1.98;;;1.23;;
42690;SDS011;28306;55.744;37.578;2022-10-16T05:38:35;2.35;;;1.40;;
42690;SDS011;28306;55.744;37.578;2022-10-16T05:41:02;2.92;;;1.63;;
42690;SDS011;28306;55.744;37.578;2022-10-16T05:43:28;2.75;;;1.45;;
42690;SDS011;28306;55.744;37.578;2022-10-16T05:45:59;2.85;;;1.40;;
42690;SDS011;28306;55.744;37.578;2022-10-16T05:48:26;3.42;;;1.50;;
42690;SDS011;28306;55.744;37.578;2022-10-16T05:50:56;3.25;;;1.40;;
42690;SDS011;28306;55.744;37.578;2022-10-16T05:53:33;1.80;;;1.23;;
42690;SDS011;28306;55.744;37.578;2022-10-16T05:56:00;1.70;;;1.20;;
42690;SDS011;28306;55.744;37.578;2022-10-16T05:58:28;4.35;;;1.42;;
42690;SDS011;28306;55.744;37.578;2022-10-16T06:00:56;2.63;;;1.63;;
42690;SDS011;28306;55.744;37.578;2022-10-16T06:03:23;3.88;;;2.30;;
42690;SDS011;28306;55.744;37.578;2022-10-16T06:05:49;3.72;;;2.05;;
42690;SDS011;28306;55.744;37.578;2022-10-16T06:08:16;5.82;;;2.55;;
42690;SDS011;28306;55.744;37.578;2022-10-16T06:10:44;3.58;;;2.47;;
42690;SDS011;28306;55.744;37.578;2022-10-16T06:13:10;5.00;;;2.40;;
42690;SDS011;28306;55.744;37.578;2022-10-16T06:15:36;4.15;;;2.90;;
42690;SDS011;28306;55.744;37.578;2022-10-16T06:18:04;5.50;;;3.22;;
42690;SDS011;28306;55.744;37.578;2022-10-16T06:20:30;7.97;;;3.22;;
42690;SDS011;28306;55.744;37.578;2022-10-16T06:22:56;6.10;;;3.58;;
42690;SDS011;28306;55.744;37.578;2022-10-16T06:25:22;3.85;;;2.70;;
42690;SDS011;28306;55.744;37.578;2022-10-16T06:27:48;4.30;;;2.70;;
42690;SDS011;28306;55.744;37.578;2022-10-16T06:30:13;6.18;;;3.05;;
42690;SDS011;28306;55.744;37.578;2022-10-16T06:32:39;4.80;;;2.60;;
42690;SDS011;28306;55.744;37.578;2022-10-16T06:35:05;4.75;;;3.10;;
42690;SDS011;28306;55.744;37.578;2022-10-16T06:37:31;6.93;;;2.50;;
42690;SDS011;28306;55.744;37.578;2022-10-16T06:39:56;5.00;;;2.53;;
42690;SDS011;28306;55.744;37.578;2022-10-16T06:42:22;3.50;;;2.08;;
42690;SDS011;28306;55.744;37.578;2022-10-16T06:44:47;4.80;;;2.53;;
42690;SDS011;28306;55.744;37.578;2022-10-16T06:47:13;4.20;;;2.20;;
42690;SDS011;28306;55.744;37.578;2022-10-16T06:49:39;3.50;;;2.03;;
42690;SDS011;28306;55.744;37.578;2022-10-16T06:52:05;3.85;;;2.30;;
42690;SDS011;28306;55.744;37.578;2022-10-16T06:54:30;4.72;;;2.28;;
42690;SDS011;28306;55.744;37.578;2022-10-16T06:56:56;3.22;;;2.40;;
42690;SDS011;28306;55.744;37.578;2022-10-16T06:59:22;3.13;;;2.20;;
42690;SDS011;28306;55.744;37.578;2022-10-16T07:01:48;2.35;;;1.63;;
42690;SDS011;28306;55.744;37.578;2022-10-16T07:04:14;4.57;;;1.70;;
42690;SDS011;28306;55.744;37.578;2022-10-16T07:06:39;3.65;;;1.73;;
42690;SDS011;28306;55.744;37.578;2022-10-16T07:09:06;4.50;;;2.00;;
42690;SDS011;28306;55.744;37.578;2022-10-16T07:11:34;3.70;;;1.67;;
42690;SDS011;28306;55.744;37.578;2022-10-16T07:14:02;3.08;;;2.10;;
42690;SDS011;28306;55.744;37.578;2022-10-16T07:16:29;4.22;;;2.08;;
42690;SDS011;28306;55.744;37.578;2022-10-16T07:18:56;3.30;;;1.73;;
42690;SDS011;28306;55.744;37.578;2022-10-16T07:21:24;2.83;;;1.70;;
42690;SDS011;28306;55.744;37.578;2022-10-16T07:23:55;6.72;;;1.77;;
42690;SDS011;28306;55.744;37.578;2022-10-16T07:26:23;3.00;;;1.88;;
42690;SDS011;28306;55.744;37.578;2022-10-16T07:28:50;4.43;;;1.90;;
42690;SDS011;28306;55.744;37.578;2022-10-16T07:31:17;4.10;;;1.80;;
42690;SDS011;28306;55.744;37.578;2022-10-16T07:33:43;2.88;;;1.58;;
42690;SDS011;28306;55.744;37.578;2022-10-16T07:36:11;5.50;;;1.40;;
42690;SDS011;28306;55.744;37.578;2022-10-16T07:38:37;5.80;;;1.67;;
42690;SDS011;28306;55.744;37.578;2022-10-16T07:41:04;2.60;;;1.60;;
42690;SDS011;28306;55.744;37.578;2022-10-16T07:43:32;2.80;;;1.58;;
42690;SDS011;28306;55.744;37.578;2022-10-16T07:45:58;4.43;;;1.60;;
42690;SDS011;28306;55.744;37.578;2022-10-16T07:48:25;5.03;;;1.50;;
42690;SDS011;28306;55.744;37.578;2022-10-16T07:50:56;6.28;;;1.55;;
42690;SDS011;28306;55.744;37.578;2022-10-16T07:53:23;6.60;;;1.70;;
42690;SDS011;28306;55.744;37.578;2022-10-16T07:55:48;4.88;;;1.48;;
42690;SDS011;28306;55.744;37.578;2022-10-16T07:58:14;3.05;;;1.45;;
42690;SDS011;28306;55.744;37.578;2022-10-16T08:00:39;4.72;;;1.42;;
42690;SDS011;28306;55.744;37.578;2022-10-16T08:03:05;3.63;;;1.90;;
42690;SDS011;28306;55.744;37.578;2022-10-16T08:05:31;4.97;;;1.63;;
42690;SDS011;28306;55.744;37.578;2022-10-16T08:07:58;5.10;;;1.70;;
42690;SDS011;28306;55.744;37.578;2022-10-16T08:10:24;3.30;;;1.58;;
42690;SDS011;28306;55.744;37.578;2022-10-16T08:12:52;5.72;;;1.52;;
42690;SDS011;28306;55.744;37.578;2022-10-16T08:15:18;3.28;;;1.30;;
42690;SDS011;28306;55.744;37.578;2022-10-16T08:17:53;5.43;;;1.58;;
42690;SDS011;28306;55.744;37.578;2022-10-16T08:20:19;3.08;;;1.60;;
42690;SDS011;28306;55.744;37.578;2022-10-16T08:22:45;2.17;;;1.38;;
42690;SDS011;28306;55.744;37.578;2022-10-16T08:25:11;5.97;;;1.90;;
42690;SDS011;28306;55.744;37.578;2022-10-16T08:27:37;9.55;;;1.95;;
42690;SDS011;28306;55.744;37.578;2022-10-16T08:30:02;3.38;;;1.50;;
42690;SDS011;28306;55.744;37.578;2022-10-16T08:32:28;3.42;;;1.90;;
42690;SDS011;28306;55.744;37.578;2022-10-16T08:34:54;6.82;;;1.60;;
42690;SDS011;28306;55.744;37.578;2022-10-16T08:37:19;10.32;;;1.90;;
42690;SDS011;28306;55.744;37.578;2022-10-16T08:39:45;4.97;;;2.10;;
42690;SDS011;28306;55.744;37.578;2022-10-16T09:00:38;9.77;;;2.20;;
42690;SDS011;28306;55.744;37.578;2022-10-16T09:03:17;4.78;;;1.77;;
42690;SDS011;28306;55.744;37.578;2022-10-16T09:05:54;5.25;;;2.20;;
42690;SDS011;28306;55.744;37.578;2022-10-16T09:11:13;6.03;;;1.67;;
42690;SDS011;28306;55.744;37.578;2022-10-16T09:13:43;29.63;;;4.30;;
42690;SDS011;28306;55.744;37.578;2022-10-16T09:16:22;42.20;;;4.88;;
42690;SDS011;28306;55.744;37.578;2022-10-16T09:19:04;25.73;;;4.70;;
42690;SDS011;28306;55.744;37.578;2022-10-16T09:21:35;26.23;;;4.40;;
42690;SDS011;28306;55.744;37.578;2022-10-16T09:24:13;17.58;;;2.83;;
42690;SDS011;28306;55.744;37.578;2022-10-16T09:26:41;24.25;;;3.80;;
42690;SDS011;28306;55.744;37.578;2022-10-16T09:29:14;11.93;;;3.00;;
42690;SDS011;28306;55.744;37.578;2022-10-16T09:31:41;20.25;;;3.15;;
42690;SDS011;28306;55.744;37.578;2022-10-16T09:34:17;16.85;;;2.85;;
42690;SDS011;28306;55.744;37.578;2022-10-16T09:36:53;16.10;;;3.15;;
42690;SDS011;28306;55.744;37.578;2022-10-16T09:39:19;11.48;;;2.78;;
42690;SDS011;28306;55.744;37.578;2022-10-16T09:41:45;21.92;;;3.35;;
42690;SDS011;28306;55.744;37.578;2022-10-16T09:44:29;18.63;;;3.67;;
42690;SDS011;28306;55.744;37.578;2022-10-16T09:47:12;20.88;;;2.78;;
42690;SDS011;28306;55.744;37.578;2022-10-16T09:49:39;13.90;;;3.05;;
42690;SDS011;28306;55.744;37.578;2022-10-16T09:52:15;23.90;;;3.13;;
42690;SDS011;28306;55.744;37.578;2022-10-16T09:57:21;19.95;;;2.70;;
42690;SDS011;28306;55.744;37.578;2022-10-16T10:02:15;12.73;;;2.80;;
42690;SDS011;28306;55.744;37.578;2022-10-16T10:04:52;11.05;;;2.50;;
42690;SDS011;28306;55.744;37.578;2022-10-16T10:07:32;11.35;;;2.85;;
42690;SDS011;28306;55.744;37.578;2022-10-16T10:10:03;12.10;;;2.90;;
42690;SDS011;28306;55.744;37.578;2022-10-16T10:12:30;16.88;;;2.40;;
42690;SDS011;28306;55.744;37.578;2022-10-16T10:15:06;7.82;;;2.15;;
42690;SDS011;28306;55.744;37.578;2022-10-16T10:17:44;18.65;;;3.00;;
42690;SDS011;28306;55.744;37.578;2022-10-16T10:22:53;18.85;;;2.50;;
42690;SDS011;28306;55.744;37.578;2022-10-16T10:25:26;19.58;;;2.92;;
42690;SDS011;28306;55.744;37.578;2022-10-16T10:33:11;8.63;;;2.20;;
42690;SDS011;28306;55.744;37.578;2022-10-16T10:35:45;9.90;;;2.50;;
42690;SDS011;28306;55.744;37.578;2022-10-16T10:41:01;8.90;;;2.03;;
42690;SDS011;28306;55.744;37.578;2022-10-16T11:06:35;5.85;;;1.75;;
42690;SDS011;28306;55.744;37.578;2022-10-16T11:09:12;5.35;;;1.63;;
42690;SDS011;28306;55.744;37.578;2022-10-16T11:11:47;3.50;;;1.73;;
42690;SDS011;28306;55.744;37.578;2022-10-16T11:14:31;9.45;;;2.03;;
42690;SDS011;28306;55.744;37.578;2022-10-16T11:17:08;4.63;;;1.70;;
42690;SDS011;28306;55.744;37.578;2022-10-16T11:27:52;9.00;;;1.90;;
42690;SDS011;28306;55.744;37.578;2022-10-16T11:30:34;3.92;;;1.48;;
42690;SDS011;28306;55.744;37.578;2022-10-16T11:38:32;3.08;;;1.60;;
42690;SDS011;28306;55.744;37.578;2022-10-16T11:41:18;4.20;;;1.48;;
42690;SDS011;28306;55.744;37.578;2022-10-16T11:43:56;6.93;;;1.45;;
42690;SDS011;28306;55.744;37.578;2022-10-16T11:49:31;4.78;;;1.42;;
42690;SDS011;28306;55.744;37.578;2022-10-16T11:57:18;6.82;;;1.60;;
42690;SDS011;28306;55.744;37.578;2022-10-16T12:08:22;2.92;;;1.25;;
42690;SDS011;28306;55.744;37.578;2022-10-16T12:10:49;4.03;;;1.33;;
42690;SDS011;28306;55.744;37.578;2022-10-16T12:13:31;4.50;;;1.30;;
42690;SDS011;28306;55.744;37.578;2022-10-16T12:16:05;3.28;;;0.98;;
42690;SDS011;28306;55.744;37.578;2022-10-16T12:18:32;2.88;;;1.35;;
42690;SDS011;28306;55.744;37.578;2022-10-16T12:20:57;4.13;;;1.02;;
42690;SDS011;28306;55.744;37.578;2022-10-16T12:23:29;3.72;;;1.45;;
42690;SDS011;28306;55.744;37.578;2022-10-16T12:25:55;2.47;;;1.10;;
42690;SDS011;28306;55.744;37.578;2022-10-16T12:28:26;2.08;;;0.95;;
42690;SDS011;28306;55.744;37.578;2022-10-16T12:35:54;1.90;;;1.10;;
42690;SDS011;28306;55.744;37.578;2022-10-16T12:41:01;2.78;;;1.27;;
42690;SDS011;28306;55.744;37.578;2022-10-16T12:46:24;2.50;;;0.90;;
42690;SDS011;28306;55.744;37.578;2022-10-16T12:51:39;3.05;;;1.20;;
42690;SDS011;28306;55.744;37.578;2022-10-16T12:54:13;1.77;;;0.88;;
42690;SDS011;28306;55.744;37.578;2022-10-16T12:56:45;2.25;;;1.23;;
42690;SDS011;28306;55.744;37.578;2022-10-16T13:07:31;2.67;;;1.48;;
42690;SDS011;28306;55.744;37.578;2022-10-16T13:26:41;3.20;;;1.40;;
42690;SDS011;28306;55.744;37.578;2022-10-16T13:29:09;3.53;;;1.70;;
42690;SDS011;28306;55.744;37.578;2022-10-16T13:31:36;1.77;;;1.20;;
42690;SDS011;28306;55.744;37.578;2022-10-16T13:34:03;5.45;;;1.83;;
42690;SDS011;28306;55.744;37.578;2022-10-16T13:36:35;2.30;;;1.27;;
42690;SDS011;28306;55.744;37.578;2022-10-16T13:41:40;2.92;;;1.50;;
42690;SDS011;28306;55.744;37.578;2022-10-16T13:44:17;2.97;;;1.60;;
42690;SDS011;28306;55.744;37.578;2022-10-16T13:46:45;2.90;;;1.20;;
42690;SDS011;28306;55.744;37.578;2022-10-16T13:49:13;2.28;;;1.27;;
42690;SDS011;28306;55.744;37.578;2022-10-16T13:51:41;2.42;;;1.42;;
42690;SDS011;28306;55.744;37.578;2022-10-16T13:54:10;2.25;;;1.40;;
42690;SDS011;28306;55.744;37.578;2022-10-16T13:56:38;2.72;;;1.55;;
42690;SDS011;28306;55.744;37.578;2022-10-16T13:59:05;2.03;;;1.10;;
42690;SDS011;28306;55.744;37.578;2022-10-16T14:05:03;2.55;;;1.40;;
42690;SDS011;28306;55.744;37.578;2022-10-16T14:07:34;2.80;;;1.30;;
42690;SDS011;28306;55.744;37.578;2022-10-16T14:10:07;2.33;;;1.30;;
42690;SDS011;28306;55.744;37.578;2022-10-16T14:13:02;2.75;;;1.80;;
42690;SDS011;28306;55.744;37.578;2022-10-16T14:15:31;3.40;;;1.33;;
42690;SDS011;28306;55.744;37.578;2022-10-16T14:18:00;2.42;;;1.38;;
42690;SDS011;28306;55.744;37.578;2022-10-16T14:20:30;1.83;;;1.10;;
42690;SDS011;28306;55.744;37.578;2022-10-16T14:22:59;2.63;;;1.40;;
42690;SDS011;28306;55.744;37.578;2022-10-16T14:25:30;2.33;;;1.20;;
42690;SDS011;28306;55.744;37.578;2022-10-16T14:28:17;2.78;;;1.40;;
42690;SDS011;28306;55.744;37.578;2022-10-16T14:31:00;4.13;;;1.20;;
42690;SDS011;28306;55.744;37.578;2022-10-16T14:33:40;3.47;;;1.67;;
42690;SDS011;28306;55.744;37.578;2022-10-16T14:36:11;2.55;;;1.30;;
42690;SDS011;28306;55.744;37.578;2022-10-16T14:38:39;2.35;;;1.10;;
42690;SDS011;28306;55.744;37.578;2022-10-16T14:41:07;2.13;;;1.35;;
42690;SDS011;28306;55.744;37.578;2022-10-16T14:43:40;2.17;;;1.30;;
42690;SDS011;28306;55.744;37.578;2022-10-16T14:46:16;1.92;;;1.35;;
42690;SDS011;28306;55.744;37.578;2022-10-16T14:48:47;2.33;;;1.40;;
42690;SDS011;28306;55.744;37.578;2022-10-16T14:51:16;3.55;;;1.55;;
42690;SDS011;28306;55.744;37.578;2022-10-16T14:53:44;2.83;;;1.10;;
42690;SDS011;28306;55.744;37.578;2022-10-16T14:56:22;2.10;;;1.17;;
42690;SDS011;28306;55.744;37.578;2022-10-16T14:58:50;2.08;;;1.27;;
42690;SDS011;28306;55.744;37.578;2022-10-16T15:01:17;2.25;;;1.05;;
42690;SDS011;28306;55.744;37.578;2022-10-16T15:03:43;3.03;;;1.40;;
42690;SDS011;28306;55.744;37.578;2022-10-16T15:06:13;2.67;;;1.52;;
42690;SDS011;28306;55.744;37.578;2022-10-16T15:08:40;2.13;;;1.17;;
42690;SDS011;28306;55.744;37.578;2022-10-16T15:11:10;2.00;;;1.00;;
42690;SDS011;28306;55.744;37.578;2022-10-16T15:13:38;1.80;;;1.17;;
42690;SDS011;28306;55.744;37.578;2022-10-16T15:16:04;2.13;;;1.20;;
42690;SDS011;28306;55.744;37.578;2022-10-16T15:18:30;2.28;;;1.23;;
42690;SDS011;28306;55.744;37.578;2022-10-16T15:20:55;2.72;;;1.55;;
42690;SDS011;28306;55.744;37.578;2022-10-16T15:23:22;3.38;;;1.45;;
42690;SDS011;28306;55.744;37.578;2022-10-16T15:25:49;3.00;;;1.70;;
42690;SDS011;28306;55.744;37.578;2022-10-16T15:28:20;2.53;;;1.40;;
42690;SDS011;28306;55.744;37.578;2022-10-16T15:30:48;2.40;;;1.40;;
42690;SDS011;28306;55.744;37.578;2022-10-16T15:33:19;2.45;;;1.40;;
42690;SDS011;28306;55.744;37.578;2022-10-16T15:35:52;2.80;;;1.73;;
42690;SDS011;28306;55.744;37.578;2022-10-16T15:38:22;1.85;;;1.23;;
42690;SDS011;28306;55.744;37.578;2022-10-16T15:40:48;3.53;;;1.35;;
42690;SDS011;28306;55.744;37.578;2022-10-16T15:43:14;3.17;;;1.80;;
42690;SDS011;28306;55.744;37.578;2022-10-16T15:45:41;2.80;;;1.73;;
42690;SDS011;28306;55.744;37.578;2022-10-16T15:48:09;4.25;;;1.90;;
42690;SDS011;28306;55.744;37.578;2022-10-16T15:50:37;3.92;;;1.85;;
42690;SDS011;28306;55.744;37.578;2022-10-16T15:53:03;2.75;;;1.42;;
42690;SDS011;28306;55.744;37.578;2022-10-16T15:55:29;5.68;;;1.75;;
42690;SDS011;28306;55.744;37.578;2022-10-16T15:57:55;3.25;;;1.80;;
42690;SDS011;28306;55.744;37.578;2022-10-16T16:00:20;3.17;;;1.60;;
42690;SDS011;28306;55.744;37.578;2022-10-16T16:02:53;19.58;;;2.55;;
42690;SDS011;28306;55.744;37.578;2022-10-16T16:05:19;13.85;;;3.25;;
42690;SDS011;28306;55.744;37.578;2022-10-16T16:07:46;10.32;;;2.70;;
42690;SDS011;28306;55.744;37.578;2022-10-16T16:10:12;15.93;;;3.08;;
42690;SDS011;28306;55.744;37.578;2022-10-16T16:12:38;9.25;;;2.47;;
42690;SDS011;28306;55.744;37.578;2022-10-16T16:15:05;14.02;;;2.83;;
42690;SDS011;28306;55.744;37.578;2022-10-16T16:17:32;12.93;;;3.05;;
42690;SDS011;28306;55.744;37.578;2022-10-16T16:19:58;11.18;;;2.47;;
42690;SDS011;28306;55.744;37.578;2022-10-16T16:22:24;13.07;;;2.53;;
42690;SDS011;28306;55.744;37.578;2022-10-16T16:24:50;10.70;;;2.25;;
42690;SDS011;28306;55.744;37.578;2022-10-16T16:27:15;5.00;;;2.15;;
42690;SDS011;28306;55.744;37.578;2022-10-16T16:29:41;5.22;;;2.03;;
42690;SDS011;28306;55.744;37.578;2022-10-16T16:32:07;7.47;;;2.10;;
42690;SDS011;28306;55.744;37.578;2022-10-16T16:34:33;7.85;;;2.42;;
42690;SDS011;28306;55.744;37.578;2022-10-16T16:36:59;7.05;;;2.45;;
42690;SDS011;28306;55.744;37.578;2022-10-16T16:39:25;8.57;;;1.95;;
42690;SDS011;28306;55.744;37.578;2022-10-16T16:41:51;12.32;;;2.53;;
42690;SDS011;28306;55.744;37.578;2022-10-16T16:44:17;5.45;;;2.22;;
42690;SDS011;28306;55.744;37.578;2022-10-16T16:46:43;3.75;;;1.98;;
42690;SDS011;28306;55.744;37.578;2022-10-16T16:49:10;8.98;;;2.08;;
42690;SDS011;28306;55.744;37.578;2022-10-16T16:51:37;6.70;;;2.10;;
42690;SDS011;28306;55.744;37.578;2022-10-16T16:54:03;8.65;;;2.42;;
42690;SDS011;28306;55.744;37.578;2022-10-16T16:56:29;4.00;;;2.08;;
42690;SDS011;28306;55.744;37.578;2022-10-16T16:58:55;8.23;;;2.17;;
42690;SDS011;28306;55.744;37.578;2022-10-16T17:01:23;6.53;;;2.10;;
42690;SDS011;28306;55.744;37.578;2022-10-16T17:03:51;4.32;;;1.98;;
42690;SDS011;28306;55.744;37.578;2022-10-16T17:06:20;7.00;;;2.20;;
42690;SDS011;28306;55.744;37.578;2022-10-16T17:08:48;4.90;;;2.47;;
42690;SDS011;28306;55.744;37.578;2022-10-16T17:11:15;8.30;;;2.13;;
42690;SDS011;28306;55.744;37.578;2022-10-16T17:13:42;12.77;;;2.45;;